Time;durP1;ratioP1;P1;durP2;ratioP2;P2;SDS_P1;SDS_P2;PMS_P1;PMS_P2;Temp;Humidity;BMP_temperature;BMP_pressure;BME280_temperature;BME280_humidity;BME280_pressure;Samples;Min_cycle;Max_cycle;Signal;HPM_P1;HPM_P2
2023/04/19 00:01:57;;;;;;;2.55;1.70;;;;;;;11.59;64.55;94820.34;5034937;28;20465;-80
2023/04/19 00:04:24;;;;;;;3.05;1.80;;;;;;;11.39;65.20;94827.81;5035915;28;20045;-80
2023/04/19 00:06:50;;;;;;;3.58;1.70;;;;;;;11.37;65.53;94841.38;5035723;28;20064;-81
2023/04/19 00:09:16;;;;;;;5.15;2.33;;;;;;;10.94;65.92;94768.97;5033061;28;20831;-80
2023/04/19 00:11:41;;;;;;;7.57;1.60;;;;;;;11.07;66.21;94804.59;5018370;28;20073;-80
2023/04/19 00:14:06;;;;;;;3.45;1.73;;;;;;;11.22;66.52;94847.66;5032116;28;20026;-80
2023/04/19 00:16:32;;;;;;;2.33;1.27;;;;;;;11.15;66.52;94814.59;5002441;28;20120;-80
2023/04/19 00:18:57;;;;;;;3.53;1.58;;;;;;;11.31;65.93;94820.50;5016660;28;20515;-80
2023/04/19 00:21:23;;;;;;;3.92;1.67;;;;;;;11.49;65.11;94812.53;5008981;28;20069;-80
2023/04/19 00:23:48;;;;;;;4.65;1.50;;;;;;;11.14;65.34;94776.66;5006071;28;20082;-80
2023/04/19 00:26:16;;;;;;;3.42;1.70;;;;;;;11.46;65.34;94822.94;5007179;28;20030;-80
2023/04/19 00:28:42;;;;;;;6.70;2.20;;;;;;;11.49;64.53;94812.53;5008696;28;20444;-80
2023/04/19 00:31:07;;;;;;;4.85;1.58;;;;;;;11.29;64.83;94772.22;5005256;28;20030;-80
2023/04/19 00:33:33;;;;;;;2.45;1.40;;;;;;;11.56;64.97;94814.84;4997692;28;20357;-80
2023/04/19 00:35:58;;;;;;;1.55;1.20;;;;;;;10.94;66.38;94807.97;4998169;28;20048;-81
2023/04/19 00:38:24;;;;;;;1.65;0.98;;;;;;;11.25;65.76;94816.31;5030604;28;20033;-80
2023/04/19 00:40:50;;;;;;;12.80;6.18;;;;;;;10.83;65.39;94746.31;5011311;28;20519;-80
2023/04/19 00:43:18;;;;;;;4.95;2.78;;;;;;;11.13;65.12;94776.94;5022774;28;20041;-80
2023/04/19 00:45:44;;;;;;;3.13;1.73;;;;;;;11.39;65.35;94809.22;5034456;28;20034;-80
2023/04/19 00:48:12;;;;;;;4.03;1.63;;;;;;;11.46;64.97;94797.16;5013178;28;20052;-80
2023/04/19 00:50:37;;;;;;;2.90;1.70;;;;;;;11.19;64.89;94736.00;5026271;28;20049;-80
2023/04/19 00:53:03;;;;;;;2.72;1.80;;;;;;;11.50;64.55;94798.19;5002092;28;20037;-80
2023/04/19 00:55:28;;;;;;;2.85;1.42;;;;;;;11.43;64.40;94773.88;5010619;28;20443;-80
2023/04/19 00:57:54;;;;;;;7.95;1.98;;;;;;;10.58;65.06;94685.63;5005774;28;20029;-81
2023/04/19 01:00:19;;;;;;;3.33;1.85;;;;;;;11.13;66.32;94814.09;5035295;28;20041;-81
2023/04/19 01:02:46;;;;;;;3.33;2.20;;;;;;;10.88;66.54;94787.88;5005667;28;20508;-81
2023/04/19 01:05:12;;;;;;;5.05;2.10;;;;;;;10.84;67.19;94811.53;4997660;28;20461;-81
2023/04/19 01:07:37;;;;;;;3.75;1.80;;;;;;;8.94;67.29;94528.75;5015016;28;20073;-81
2023/04/19 01:10:03;;;;;;;5.82;2.05;;;;;;;10.60;67.20;94786.91;5028903;28;20049;-81
2023/04/19 01:12:28;;;;;;;3.88;1.70;;;;;;;10.12;67.70;94717.94;5034168;28;20100;-81
2023/04/19 01:14:54;;;;;;;6.70;2.13;;;;;;;10.22;67.98;94749.63;5016640;28;20420;-81
2023/04/19 01:17:19;;;;;;;3.78;1.75;;;;;;;10.21;67.39;94713.63;5017521;28;20029;-81
2023/04/19 01:19:45;;;;;;;3.75;2.00;;;;;;;10.93;67.37;94796.56;5016991;28;20033;-81
2023/04/19 01:22:23;;;;;;;3.60;1.90;;;;;;;10.63;67.29;94739.38;5016074;28;20040;-80
2023/04/19 01:24:50;;;;;;;4.97;2.40;;;;;;;11.09;67.18;94811.22;4997183;28;20128;-81
2023/04/19 01:27:16;;;;;;;4.05;2.08;;;;;;;11.07;67.10;94812.56;4997185;28;20029;-81
2023/04/19 01:29:42;;;;;;;2.67;1.90;;;;;;;11.08;67.06;94806.97;5003100;28;20029;-81
2023/04/19 01:32:07;;;;;;;3.35;2.30;;;;;;;10.58;67.91;94759.88;5034340;28;20033;-81
2023/04/19 01:34:33;;;;;;;4.18;2.55;;;;;;;10.58;67.48;94749.25;5016743;28;20111;-80
2023/04/19 01:36:58;;;;;;;6.43;2.47;;;;;;;10.89;68.14;94806.19;5034278;28;20501;-81
2023/04/19 01:39:25;;;;;;;3.72;2.55;;;;;;;10.49;68.25;94741.13;5016303;28;20061;-80
2023/04/19 01:41:50;;;;;;;5.47;3.17;;;;;;;10.68;69.19;94795.00;5016492;28;20053;-81
2023/04/19 01:44:16;;;;;;;5.13;2.75;;;;;;;10.46;69.32;94760.25;5016845;28;20037;-81
2023/04/19 01:46:41;;;;;;;5.50;2.17;;;;;;;10.20;69.37;94695.34;5004054;28;20034;-81
2023/04/19 01:49:07;;;;;;;5.88;2.58;;;;;;;10.86;69.19;94792.66;4997827;28;20103;-81
2023/04/19 01:51:33;;;;;;;4.53;2.47;;;;;;;10.84;69.07;94793.75;5013934;28;20021;-81
2023/04/19 01:53:58;;;;;;;5.18;2.58;;;;;;;10.19;69.64;94728.22;5038572;28;20108;-84
2023/04/19 01:56:25;;;;;;;3.35;2.30;;;;;;;10.28;70.24;94743.22;5018938;28;20034;-83
2023/04/19 01:58:50;;;;;;;4.60;2.25;;;;;;;10.49;69.77;94754.38;5036454;28;20125;-84
2023/04/19 02:01:15;;;;;;;11.63;2.70;;;;;;;10.51;70.26;94791.22;5016595;28;20053;-85
2023/04/19 02:03:41;;;;;;;7.93;2.60;;;;;;;10.06;70.83;94772.03;5018210;28;20072;-84
2023/04/19 02:06:11;;;;;;;8.02;2.78;;;;;;;10.20;71.63;94796.84;5018086;28;20030;-85
2023/04/19 02:08:37;;;;;;;5.25;2.50;;;;;;;10.03;72.29;94793.78;5001472;28;20512;-84
2023/04/19 02:11:10;;;;;;;5.82;2.55;;;;;;;9.74;72.98;94775.25;5002250;28;20487;-84
2023/04/19 02:13:35;;;;;;;11.30;4.60;;;;;;;9.74;73.67;94799.06;5036559;28;20559;-83
2023/04/19 02:16:01;;;;;;;4.63;3.13;;;;;;;9.47;73.21;94741.28;5028175;28;20034;-84
2023/04/19 02:18:30;;;;;;;12.20;5.10;;;;;;;9.58;73.42;94776.41;5026881;28;20060;-84
2023/04/19 02:20:57;;;;;;;4.70;3.10;;;;;;;9.27;74.13;94742.22;5018681;28;20056;-85
2023/04/19 02:23:22;;;;;;;4.95;3.10;;;;;;;9.39;75.20;94784.22;5018486;28;20036;-83
2023/04/19 02:25:48;;;;;;;5.07;2.80;;;;;;;8.69;75.50;94690.25;5020786;28;20038;-84
2023/04/19 02:28:13;;;;;;;11.75;3.97;;;;;;;9.27;75.34;94757.31;4998843;28;20488;-83
2023/04/19 02:30:39;;;;;;;4.97;2.72;;;;;;;9.66;75.02;94781.13;4998111;28;20042;-84
2023/04/19 02:33:04;;;;;;;4.43;3.05;;;;;;;8.73;74.76;94664.81;4997628;28;20030;-83
2023/04/19 02:35:30;;;;;;;6.95;3.45;;;;;;;9.03;75.01;94698.22;5016620;28;20163;-84
2023/04/19 02:37:55;;;;;;;6.03;3.45;;;;;;;9.46;74.91;94773.34;5017672;28;20029;-83
2023/04/19 02:40:21;;;;;;;5.32;3.00;;;;;;;9.60;74.34;94769.78;5024843;28;20041;-84
2023/04/19 02:42:47;;;;;;;5.20;3.00;;;;;;;9.43;74.24;94744.78;5002216;28;20037;-83
2023/04/19 02:45:12;;;;;;;5.05;2.80;;;;;;;9.33;74.20;94718.38;5034387;28;20040;-85
2023/04/19 02:47:38;;;;;;;5.90;3.45;;;;;;;9.67;73.72;94753.59;5034767;28;20056;-84
2023/04/19 02:50:04;;;;;;;7.75;3.60;;;;;;;9.96;73.10;94790.69;5017994;28;20052;-84
2023/04/19 02:52:30;;;;;;;7.57;3.67;;;;;;;9.71;72.65;94722.03;5017706;28;20029;-84
2023/04/19 02:54:56;;;;;;;5.82;3.40;;;;;;;9.57;73.35;94764.25;5005940;28;20613;-84
2023/04/19 02:57:21;;;;;;;5.68;3.42;;;;;;;9.08;72.84;94671.75;5009961;28;20057;-84
2023/04/19 02:59:46;;;;;;;8.45;3.70;;;;;;;9.96;72.83;94783.53;5017988;28;20030;-84
2023/04/19 03:02:12;;;;;;;5.75;4.05;;;;;;;9.71;72.56;94761.75;5017794;28;20029;-84
2023/04/19 03:04:37;;;;;;;5.57;4.32;;;;;;;9.64;73.25;94768.16;5020581;28;20132;-84
2023/04/19 03:07:03;;;;;;;8.60;4.05;;;;;;;9.36;74.93;94784.78;4997848;28;20060;-84
2023/04/19 03:09:28;;;;;;;5.28;4.20;;;;;;;9.48;74.33;94766.69;5015711;28;20061;-83
2023/04/19 03:11:53;;;;;;;7.18;4.22;;;;;;;9.52;73.59;94773.03;4997845;28;20045;-86
2023/04/19 03:14:19;;;;;;;9.82;4.38;;;;;;;9.49;74.20;94784.16;4998301;28;20040;-83
2023/04/19 03:16:45;;;;;;;14.35;4.38;;;;;;;8.93;75.39;94759.09;4997523;28;20049;-85
2023/04/19 03:19:10;;;;;;;9.52;4.18;;;;;;;9.01;74.93;94747.94;5015324;28;20026;-84
2023/04/19 03:21:35;;;;;;;7.20;5.00;;;;;;;8.93;74.87;94722.06;4998015;28;20030;-83
2023/04/19 03:24:01;;;;;;;10.52;5.22;;;;;;;8.92;74.92;94736.38;4998401;28;20029;-84
2023/04/19 03:26:26;;;;;;;6.70;4.75;;;;;;;8.96;75.44;94743.50;4998126;28;20087;-84
2023/04/19 03:28:52;;;;;;;8.32;4.82;;;;;;;9.01;75.73;94769.91;5015376;28;20022;-83
2023/04/19 03:31:17;;;;;;;6.38;4.18;;;;;;;8.71;75.59;94717.97;4998243;28;20038;-84
2023/04/19 03:33:43;;;;;;;5.90;4.60;;;;;;;9.03;75.68;94767.78;5027026;28;20041;-83
2023/04/19 03:36:08;;;;;;;11.25;4.68;;;;;;;8.98;75.81;94775.75;5033775;28;20049;-83
2023/04/19 03:38:34;;;;;;;7.50;4.68;;;;;;;8.77;75.21;94735.38;5004241;28;20061;-83
2023/04/19 03:40:59;;;;;;;8.38;4.10;;;;;;;8.85;75.58;94755.16;5028763;28;20164;-84
2023/04/19 03:43:25;;;;;;;7.55;5.13;;;;;;;9.04;75.67;94764.06;5002031;28;20103;-84
2023/04/19 03:45:50;;;;;;;8.25;4.85;;;;;;;9.02;75.23;94760.09;5032344;28;20031;-85
2023/04/19 03:48:16;;;;;;;7.30;5.00;;;;;;;8.46;75.49;94681.09;5034656;28;20029;-82
2023/04/19 03:50:41;;;;;;;7.47;4.75;;;;;;;8.85;75.24;94741.94;5020991;28;20393;-82
2023/04/19 03:53:07;;;;;;;6.85;4.35;;;;;;;8.21;76.50;94692.53;5000386;28;20091;-82
2023/04/19 03:55:32;;;;;;;6.78;4.80;;;;;;;8.23;76.36;94702.84;5030207;28;20087;-81
2023/04/19 03:57:58;;;;;;;6.47;4.78;;;;;;;8.77;76.98;94768.97;5002839;28;20025;-81
2023/04/19 04:00:23;;;;;;;17.00;5.25;;;;;;;8.71;76.02;94730.38;4999377;28;20033;-82
2023/04/19 04:02:49;;;;;;;9.27;4.93;;;;;;;9.23;75.93;94788.06;5006496;28;20025;-82
2023/04/19 04:05:14;;;;;;;6.30;4.93;;;;;;;9.35;75.05;94774.47;5016816;28;20068;-81
2023/04/19 04:07:40;;;;;;;7.65;5.22;;;;;;;8.68;74.99;94688.66;5017402;28;20045;-82
2023/04/19 04:10:07;;;;;;;9.15;4.75;;;;;;;8.37;75.11;94648.38;5028925;28;20022;-82
2023/04/19 04:12:32;;;;;;;8.30;4.53;;;;;;;9.23;75.42;94783.53;5012262;28;20016;-82
2023/04/19 04:15:00;;;;;;;7.95;4.88;;;;;;;9.15;74.67;94773.53;5010982;28;20033;-82
2023/04/19 04:17:25;;;;;;;7.72;4.45;;;;;;;8.85;75.28;94757.81;5036814;28;20671;-82
2023/04/19 04:19:50;;;;;;;6.07;4.82;;;;;;;8.55;75.07;94707.72;5016617;28;20056;-82
2023/04/19 04:22:16;;;;;;;10.30;5.28;;;;;;;8.69;75.81;94743.13;5023536;28;20029;-82
2023/04/19 04:24:42;;;;;;;11.68;5.93;;;;;;;9.08;75.59;94798.72;5028093;28;20029;-82
2023/04/19 04:27:11;;;;;;;7.35;5.30;;;;;;;9.12;75.24;94800.53;5018341;28;20037;-82
2023/04/19 04:29:37;;;;;;;11.40;6.15;;;;;;;8.47;75.71;94725.72;5007398;28;20025;-82
2023/04/19 04:32:07;;;;;;;8.02;5.82;;;;;;;8.28;75.76;94698.31;5002534;28;20081;-81
2023/04/19 04:34:32;;;;;;;13.10;5.28;;;;;;;8.87;76.27;94804.09;5023159;28;20033;-81
2023/04/19 04:36:58;;;;;;;7.22;5.35;;;;;;;8.04;76.29;94695.50;5006768;28;20029;-82
2023/04/19 04:39:23;;;;;;;13.73;6.13;;;;;;;8.52;77.83;94799.75;5017884;28;20493;-82
2023/04/19 04:41:50;;;;;;;10.75;5.78;;;;;;;7.93;77.78;94720.34;4998153;28;20029;-82
2023/04/19 04:44:16;;;;;;;9.13;5.55;;;;;;;8.51;78.09;94803.44;5009100;28;20483;-82
2023/04/19 04:46:43;;;;;;;14.63;5.95;;;;;;;8.30;78.21;94762.25;5004437;28;20141;-82
2023/04/19 04:49:08;;;;;;;18.60;6.15;;;;;;;8.31;77.51;94747.22;5007238;28;20116;-81
2023/04/19 04:51:34;;;;;;;11.07;6.13;;;;;;;8.46;77.52;94802.66;5026404;28;20109;-83
2023/04/19 04:53:59;;;;;;;11.15;5.80;;;;;;;8.36;77.76;94768.34;5003665;28;20029;-84
2023/04/19 04:56:25;;;;;;;8.90;6.38;;;;;;;8.33;77.73;94768.88;5002571;28;20044;-83
2023/04/19 04:58:50;;;;;;;11.20;5.97;;;;;;;7.91;77.99;94711.13;5005949;28;20089;-84
2023/04/19 05:01:18;;;;;;;12.15;6.60;;;;;;;8.51;78.26;94821.13;4988426;28;20049;-81
2023/04/19 05:03:44;;;;;;;9.40;6.05;;;;;;;8.16;78.66;94763.09;5022905;28;20057;-81
2023/04/19 05:06:09;;;;;;;10.27;6.00;;;;;;;7.68;78.25;94660.47;5007021;28;20048;-82
2023/04/19 05:08:34;;;;;;;8.05;5.50;;;;;;;8.64;77.62;94799.41;4999227;28;20061;-84
2023/04/19 05:11:00;;;;;;;12.48;6.72;;;;;;;6.60;77.47;94504.50;5003032;28;20034;-81
2023/04/19 05:13:27;;;;;;;13.50;6.35;;;;;;;7.87;78.01;94699.50;5002982;28;20052;-81
2023/04/19 05:15:52;;;;;;;7.95;5.70;;;;;;;8.16;77.88;94740.09;5001842;28;20475;-84
2023/04/19 05:18:18;;;;;;;7.45;6.05;;;;;;;8.67;77.80;94820.03;5002006;28;20300;-83
2023/04/19 05:20:45;;;;;;;11.90;6.82;;;;;;;8.72;77.92;94814.72;4998172;28;20481;-84
2023/04/19 05:23:11;;;;;;;13.43;6.40;;;;;;;8.95;77.83;94818.59;4995593;28;20022;-83
2023/04/19 05:25:36;;;;;;;13.32;5.82;;;;;;;9.03;77.04;94822.53;5001147;28;20045;-82
2023/04/19 05:28:02;;;;;;;13.80;6.40;;;;;;;8.31;76.90;94683.81;5007850;28;20038;-82
2023/04/19 05:30:28;;;;;;;19.23;5.95;;;;;;;8.85;75.94;94763.91;5008776;28;20391;-82
2023/04/19 05:32:55;;;;;;;12.25;7.65;;;;;;;8.71;76.67;94762.91;5009012;28;20493;-84
2023/04/19 05:35:21;;;;;;;12.00;6.35;;;;;;;7.31;76.26;94552.66;5000853;28;20026;-82
2023/04/19 05:37:46;;;;;;;11.45;6.55;;;;;;;6.69;76.44;94470.53;5002250;28;20032;-83
2023/04/19 05:40:18;;;;;;;7.90;5.60;;;;;;;6.82;77.04;94525.31;5001123;28;20042;-82
2023/04/19 05:42:43;;;;;;;11.60;6.53;;;;;;;8.71;77.33;94805.22;5001321;28;20037;-82
2023/04/19 05:45:09;;;;;;;12.10;6.25;;;;;;;8.35;77.82;94756.97;5005272;28;20476;-83
2023/04/19 05:47:35;;;;;;;9.05;6.10;;;;;;;8.75;77.24;94790.41;5004245;28;20440;-82
2023/04/19 05:50:00;;;;;;;11.13;6.07;;;;;;;9.08;77.26;94825.16;5003439;28;20090;-83
2023/04/19 05:52:26;;;;;;;10.05;5.93;;;;;;;7.82;77.06;94667.84;5001153;28;20042;-82
2023/04/19 05:54:51;;;;;;;15.00;6.30;;;;;;;8.19;77.87;94723.69;5005187;28;20084;-83
2023/04/19 05:57:16;;;;;;;16.00;7.05;;;;;;;7.98;77.62;94679.94;5005022;28;20125;-84
2023/04/19 05:59:42;;;;;;;13.02;7.63;;;;;;;8.88;77.87;94823.38;5008718;28;20030;-82
2023/04/19 06:02:08;;;;;;;8.60;6.07;;;;;;;8.82;77.45;94805.97;5007843;28;20087;-82
2023/04/19 06:04:33;;;;;;;19.35;8.57;;;;;;;8.91;77.25;94791.13;5008206;28;20026;-82
2023/04/19 06:06:59;;;;;;;21.45;8.25;;;;;;;9.00;75.91;94786.06;5009817;28;20806;-82
2023/04/19 06:09:24;;;;;;;9.18;6.00;;;;;;;9.38;76.20;94829.50;5008949;28;20034;-83
2023/04/19 06:11:50;;;;;;;11.77;6.32;;;;;;;9.08;75.38;94802.13;5004111;28;20137;-83
2023/04/19 06:14:15;;;;;;;13.55;6.40;;;;;;;9.11;76.19;94812.19;5001229;28;20026;-83
2023/04/19 06:16:41;;;;;;;11.27;5.88;;;;;;;8.90;75.69;94781.59;5000533;28;20022;-82
2023/04/19 06:19:09;;;;;;;12.45;6.45;;;;;;;9.15;75.97;94823.00;4999379;28;20043;-84
2023/04/19 06:21:35;;;;;;;11.30;6.45;;;;;;;9.36;75.79;94818.41;5001211;28;20115;-82
2023/04/19 06:24:01;;;;;;;16.23;6.57;;;;;;;9.13;75.29;94761.66;5001330;28;20061;-83
2023/04/19 06:26:27;;;;;;;12.07;6.72;;;;;;;9.32;74.88;94796.16;5000417;28;20026;-83
2023/04/19 06:28:53;;;;;;;10.50;6.50;;;;;;;9.18;75.29;94780.91;4995316;28;20057;-82
2023/04/19 06:31:18;;;;;;;8.20;5.47;;;;;;;9.39;75.27;94828.41;5009080;28;20853;-82
2023/04/19 06:33:44;;;;;;;11.40;6.00;;;;;;;9.26;75.40;94772.41;4987748;28;20034;-84
2023/04/19 06:36:11;;;;;;;13.55;6.47;;;;;;;9.69;74.89;94822.91;5004684;28;20469;-83
2023/04/19 06:38:37;;;;;;;14.20;6.45;;;;;;;9.07;74.62;94708.00;5002682;28;20033;-82
2023/04/19 06:41:03;;;;;;;11.73;6.20;;;;;;;9.93;73.62;94818.50;5000376;28;20716;-82
2023/04/19 06:43:29;;;;;;;13.00;6.28;;;;;;;9.43;73.56;94752.72;5003494;28;20061;-83
2023/04/19 06:46:02;;;;;;;8.45;5.90;;;;;;;9.26;73.41;94716.84;4999342;28;20691;-83
2023/04/19 06:48:27;;;;;;;8.68;5.90;;;;;;;10.10;73.20;94818.09;5019150;28;20134;-82
2023/04/19 06:50:53;;;;;;;11.13;6.13;;;;;;;10.02;72.74;94822.13;5007434;28;20052;-85
2023/04/19 06:53:19;;;;;;;12.02;6.20;;;;;;;10.19;72.47;94826.28;5006672;28;20038;-85
2023/04/19 06:55:45;;;;;;;10.18;6.07;;;;;;;9.86;71.62;94741.22;5004420;28;20038;-88
2023/04/19 06:58:10;;;;;;;19.27;5.90;;;;;;;9.99;71.68;94787.47;5005652;28;20430;-83
2023/04/19 07:00:36;;;;;;;10.98;5.45;;;;;;;10.23;71.09;94804.22;5004631;28;20034;-87
2023/04/19 07:03:02;;;;;;;13.60;5.28;;;;;;;8.61;71.03;94563.94;5003571;28;20026;-84
2023/04/19 07:05:28;;;;;;;10.90;5.53;;;;;;;9.74;71.65;94755.91;5003999;28;20076;-86
2023/04/19 07:07:54;;;;;;;8.95;6.00;;;;;;;10.43;71.48;94838.50;5004895;28;20124;-83
2023/04/19 07:10:19;;;;;;;8.15;5.60;;;;;;;9.91;71.29;94774.84;5003859;28;20036;-82
2023/04/19 07:12:45;;;;;;;9.85;5.60;;;;;;;10.07;71.63;94810.69;5019577;28;20025;-83
2023/04/19 07:15:10;;;;;;;12.70;5.93;;;;;;;10.11;71.89;94821.53;5006383;28;20033;-82
2023/04/19 07:17:36;;;;;;;8.77;5.70;;;;;;;10.15;72.06;94828.63;5023379;28;20033;-82
2023/04/19 07:20:03;;;;;;;14.30;7.30;;;;;;;10.44;71.67;94842.72;5005197;28;20017;-82
2023/04/19 07:22:29;;;;;;;11.15;5.82;;;;;;;10.06;71.38;94794.03;5021321;28;20072;-82
2023/04/19 07:24:55;;;;;;;10.80;5.95;;;;;;;10.04;71.09;94779.47;5002141;28;20069;-82
2023/04/19 07:27:20;;;;;;;10.20;6.60;;;;;;;9.92;71.26;94763.94;5003733;28;20059;-83
2023/04/19 07:29:46;;;;;;;11.00;5.93;;;;;;;10.04;71.09;94777.63;5006003;28;20037;-82
2023/04/19 07:32:12;;;;;;;13.10;5.45;;;;;;;10.51;71.04;94847.69;5001946;28;20033;-82
2023/04/19 07:34:40;;;;;;;7.15;5.15;;;;;;;10.15;70.56;94780.16;5021677;28;20038;-84
2023/04/19 07:37:05;;;;;;;6.07;4.60;;;;;;;10.24;70.49;94797.06;5001771;28;20167;-83
2023/04/19 07:39:31;;;;;;;11.15;5.88;;;;;;;10.48;70.72;94848.25;4995731;28;20116;-83
2023/04/19 07:41:57;;;;;;;10.13;5.63;;;;;;;10.21;70.81;94824.13;4999470;28;20033;-82
2023/04/19 07:44:22;;;;;;;8.07;5.35;;;;;;;10.63;70.41;94844.66;5003606;28;20101;-81
2023/04/19 07:46:48;;;;;;;13.43;6.32;;;;;;;10.06;70.48;94785.28;5004522;28;20162;-81
2023/04/19 07:49:14;;;;;;;8.05;5.50;;;;;;;10.06;71.58;94832.97;5005186;28;20021;-83
2023/04/19 07:51:42;;;;;;;10.90;5.85;;;;;;;9.84;71.90;94811.44;5006623;28;20078;-82
2023/04/19 07:54:08;;;;;;;10.85;5.05;;;;;;;9.52;71.12;94714.00;5007891;28;20179;-81
2023/04/19 07:56:33;;;;;;;11.25;5.68;;;;;;;10.03;71.15;94776.03;5005142;28;20103;-83
2023/04/19 07:58:59;;;;;;;8.93;4.10;;;;;;;9.59;70.77;94694.06;5002697;28;20097;-81
2023/04/19 08:01:25;;;;;;;11.00;4.93;;;;;;;10.37;70.90;94828.22;5000410;28;20037;-81
2023/04/19 08:03:50;;;;;;;7.28;4.82;;;;;;;10.32;69.76;94788.50;5017528;28;20041;-82
2023/04/19 08:06:16;;;;;;;10.20;5.35;;;;;;;10.52;69.52;94811.38;5019850;28;20061;-82
2023/04/19 08:08:42;;;;;;;6.93;4.00;;;;;;;10.63;69.13;94823.44;5003776;28;20056;-82
2023/04/19 08:11:07;;;;;;;7.25;4.35;;;;;;;10.66;68.76;94828.97;5003633;28;20475;-82
2023/04/19 08:13:34;;;;;;;12.48;5.07;;;;;;;10.63;69.60;94856.06;5023621;28;20032;-81
2023/04/19 08:16:00;;;;;;;11.07;5.15;;;;;;;10.70;69.25;94856.50;5020326;28;20029;-81
2023/04/19 08:18:25;;;;;;;6.65;4.90;;;;;;;9.99;69.50;94753.81;4999351;28;20048;-82
2023/04/19 08:20:51;;;;;;;8.93;4.95;;;;;;;10.40;69.84;94809.09;5005150;28;20081;-82
2023/04/19 08:23:16;;;;;;;9.05;4.90;;;;;;;10.69;69.07;94849.63;5015863;28;20037;-82
2023/04/19 08:25:42;;;;;;;6.35;4.35;;;;;;;10.68;69.12;94823.41;4998610;28;20045;-82
2023/04/19 08:28:08;;;;;;;7.65;4.00;;;;;;;10.60;69.06;94846.03;5004559;28;20076;-81
2023/04/19 08:30:33;;;;;;;6.20;4.47;;;;;;;10.43;69.17;94809.34;5016302;28;20036;-82
2023/04/19 08:33:00;;;;;;;10.30;5.10;;;;;;;10.87;68.83;94849.97;5021724;28;20131;-83
2023/04/19 08:35:25;;;;;;;15.90;5.32;;;;;;;10.34;68.79;94736.78;5021617;28;20154;-82
2023/04/19 08:37:52;;;;;;;11.80;5.30;;;;;;;11.13;68.19;94817.56;5020197;28;20046;-83
2023/04/19 08:40:18;;;;;;;9.25;4.80;;;;;;;11.11;67.43;94785.19;5003502;28;20030;-81
2023/04/19 08:42:43;;;;;;;6.63;4.10;;;;;;;11.23;66.20;94800.69;5006119;28;20032;-82
2023/04/19 08:45:12;;;;;;;9.05;4.05;;;;;;;11.16;66.57;94810.88;5006026;28;20155;-80
2023/04/19 08:47:39;;;;;;;7.88;3.83;;;;;;;11.38;66.76;94820.91;5027056;28;20385;-84
2023/04/19 08:50:06;;;;;;;9.07;5.00;;;;;;;11.41;65.29;94807.09;4991085;28;20087;-83
2023/04/19 08:52:36;;;;;;;4.88;3.50;;;;;;;11.36;65.28;94791.25;5017083;28;20489;-81
2023/04/19 08:55:05;;;;;;;5.63;3.70;;;;;;;11.44;65.41;94833.84;5021080;28;20029;-81
2023/04/19 08:57:34;;;;;;;8.07;4.03;;;;;;;11.57;65.56;94830.50;5018873;28;20037;-88
2023/04/19 09:00:08;;;;;;;5.20;3.92;;;;;;;11.04;64.97;94739.66;5027142;28;20484;-84
2023/04/19 09:02:47;;;;;;;10.90;4.43;;;;;;;11.78;64.86;94819.59;5027164;28;20120;-82
2023/04/19 09:05:14;;;;;;;4.95;3.60;;;;;;;11.78;64.61;94828.34;5027363;28;20110;-81
2023/04/19 09:07:41;;;;;;;5.90;3.63;;;;;;;11.56;64.87;94812.97;5004906;28;20054;-82
2023/04/19 09:10:09;;;;;;;6.07;3.70;;;;;;;11.76;64.75;94814.56;5014395;28;20041;-81
2023/04/19 09:12:35;;;;;;;4.82;3.30;;;;;;;11.08;64.74;94708.78;5008426;28;20040;-83
2023/04/19 09:15:03;;;;;;;6.88;4.28;;;;;;;11.90;64.02;94825.25;5016179;28;20167;-82
2023/04/19 09:17:32;;;;;;;5.97;3.70;;;;;;;11.70;64.34;94798.94;5004689;28;20447;-82
2023/04/19 09:19:58;;;;;;;5.00;3.42;;;;;;;10.96;63.74;94647.44;5029557;28;20056;-82
2023/04/19 09:22:24;;;;;;;7.80;3.60;;;;;;;12.14;63.75;94807.28;5010348;28;20029;-82
2023/04/19 09:24:51;;;;;;;6.38;3.58;;;;;;;11.89;64.01;94810.38;5008878;28;20055;-84
2023/04/19 09:27:26;;;;;;;9.30;3.58;;;;;;;11.60;63.02;94691.00;5021848;28;20030;-82
2023/04/19 09:29:53;;;;;;;4.25;2.97;;;;;;;12.27;61.88;94803.13;5023237;28;20052;-85
2023/04/19 09:32:18;;;;;;;8.18;2.67;;;;;;;12.44;61.12;94819.28;5006535;28;20030;-83
2023/04/19 09:34:55;;;;;;;5.78;3.00;;;;;;;12.43;61.35;94803.63;5007777;28;20730;-82
2023/04/19 09:37:21;;;;;;;5.28;2.90;;;;;;;10.93;61.27;94602.88;5021121;28;20029;-81
2023/04/19 09:39:47;;;;;;;8.15;3.72;;;;;;;11.51;60.42;94653.72;5004977;28;20563;-82
2023/04/19 09:42:12;;;;;;;5.07;3.08;;;;;;;11.07;60.40;94557.81;5027718;28;20026;-81
2023/04/19 09:44:38;;;;;;;8.70;3.75;;;;;;;12.86;59.52;94782.84;5024459;28;20038;-82
2023/04/19 09:47:22;;;;;;;4.57;3.25;;;;;;;12.09;59.89;94694.97;5029008;28;20033;-83
2023/04/19 09:50:02;;;;;;;6.38;3.40;;;;;;;11.57;59.93;94572.09;5033369;28;20029;-82
2023/04/19 09:52:31;;;;;;;4.68;3.05;;;;;;;12.72;58.42;94737.63;5035981;28;20102;-83
2023/04/19 09:55:00;;;;;;;6.85;3.55;;;;;;;13.80;57.08;94765.09;5031794;28;20055;-81
2023/04/19 09:57:26;;;;;;;6.72;2.60;;;;;;;13.94;54.28;94714.38;5033224;28;20262;-81
2023/04/19 09:59:52;;;;;;;6.10;2.70;;;;;;;12.79;55.02;94634.25;4998175;28;20072;-83
2023/04/19 10:02:20;;;;;;;5.07;2.63;;;;;;;12.75;54.95;94554.22;5033356;28;20033;-83
2023/04/19 10:04:46;;;;;;;3.85;2.67;;;;;;;15.09;52.76;94770.25;5004353;28;20040;-82
2023/04/19 10:07:14;;;;;;;6.13;2.67;;;;;;;14.36;52.07;94614.28;5004960;28;20029;-84
2023/04/19 10:09:40;;;;;;;5.03;2.92;;;;;;;14.68;49.54;94495.72;5020773;28;20571;-82
2023/04/19 10:12:06;;;;;;;4.15;2.47;;;;;;;16.43;47.86;94745.19;5025433;28;20045;-80
2023/04/19 10:14:35;;;;;;;3.53;2.50;;;;;;;16.68;47.87;94754.25;5027944;28;20516;-86
2023/04/19 10:17:01;;;;;;;8.25;2.08;;;;;;;16.28;47.92;94777.81;5017889;28;20198;-80
2023/04/19 10:19:28;;;;;;;4.63;2.70;;;;;;;16.44;48.10;94778.88;5032740;28;20105;-86
2023/04/19 10:21:55;;;;;;;3.38;2.42;;;;;;;15.35;49.17;94731.00;5036020;28;20367;-81
2023/04/19 10:24:23;;;;;;;6.00;2.58;;;;;;;16.02;49.80;94775.19;5011397;28;20672;-82
2023/04/19 10:27:10;;;;;;;6.95;3.08;;;;;;;16.37;49.62;94768.66;5013859;28;20041;-82
2023/04/19 10:30:02;;;;;;;7.35;2.85;;;;;;;16.78;47.34;94760.03;5009893;28;20045;-80
2023/04/19 10:32:41;;;;;;;3.92;3.17;;;;;;;17.16;46.28;94745.81;5008612;28;20172;-80
2023/04/19 10:35:08;;;;;;;5.97;2.80;;;;;;;17.07;45.95;94763.84;5029339;28;20067;-80
2023/04/19 10:37:34;;;;;;;7.45;2.95;;;;;;;17.14;45.73;94761.44;5008608;28;20068;-80
2023/04/19 10:40:01;;;;;;;2.85;2.08;;;;;;;16.98;45.67;94750.50;5013897;28;20041;-81
2023/04/19 10:43:05;;;;;;;8.68;2.80;;;;;;;17.41;45.40;94742.16;5014870;28;20033;-80
2023/04/19 10:45:31;;;;;;;6.22;2.50;;;;;;;17.32;44.13;94741.44;4982664;28;20630;-79
2023/04/19 10:47:57;;;;;;;3.15;2.30;;;;;;;17.01;44.54;94757.09;5009177;28;20041;-80
2023/04/19 10:50:22;;;;;;;3.95;3.00;;;;;;;17.25;44.24;94743.84;4995273;28;20021;-80
2023/04/19 10:52:48;;;;;;;4.03;2.40;;;;;;;17.35;43.65;94719.34;5011042;28;20097;-82
2023/04/19 10:55:18;;;;;;;5.28;2.40;;;;;;;17.18;44.27;94747.06;5032056;28;20044;-80
2023/04/19 10:58:06;;;;;;;3.20;2.57;;;;;;;17.50;44.18;94732.16;5015389;28;20048;-81
2023/04/19 11:00:32;;;;;;;3.60;2.72;;;;;;;17.10;45.33;94726.44;5011663;28;20301;-80
2023/04/19 11:03:46;;;;;;;4.10;3.05;;;;;;;17.24;44.74;94736.94;5029426;28;20141;-81
2023/04/19 11:06:25;;;;;;;3.78;2.22;;;;;;;17.28;43.59;94727.13;4987146;28;20045;-81
2023/04/19 11:08:51;;;;;;;6.03;3.03;;;;;;;17.54;43.41;94716.22;5024217;28;20045;-81
2023/04/19 11:11:18;;;;;;;5.75;2.72;;;;;;;16.75;44.84;94672.31;5011002;28;20037;-82
2023/04/19 11:13:46;;;;;;;7.13;3.22;;;;;;;17.42;44.52;94727.66;5024789;28;20217;-80
2023/04/19 11:16:12;;;;;;;4.95;2.55;;;;;;;17.66;42.44;94692.94;5022325;28;20057;-82
2023/04/19 11:18:37;;;;;;;11.32;3.15;;;;;;;17.11;43.86;94689.72;5024506;28;20037;-80
2023/04/19 11:21:03;;;;;;;4.45;2.70;;;;;;;17.29;42.70;94659.81;5028808;28;20132;-80
2023/04/19 11:23:28;;;;;;;4.88;2.40;;;;;;;17.39;42.71;94673.94;5004959;28;20037;-80
2023/04/19 11:25:54;;;;;;;6.63;2.80;;;;;;;17.54;42.02;94652.66;5026894;28;20097;-81
2023/04/19 11:28:20;;;;;;;7.07;2.92;;;;;;;17.88;42.36;94705.22;5028615;28;20145;-81
2023/04/19 11:30:46;;;;;;;4.88;2.90;;;;;;;17.94;42.55;94703.09;5031291;28;20105;-82
2023/04/19 11:33:12;;;;;;;3.92;2.83;;;;;;;18.64;41.27;94722.72;5012941;28;20831;-81